createdAt,value
2022-08-17T00:00:43.547Z,10.75
2022-08-17T00:03:38.343Z,9.00
2022-08-17T00:06:29.919Z,10.48
2022-08-17T00:09:20.037Z,12.80
2022-08-17T00:12:43.339Z,12.27
2022-08-17T00:15:22.482Z,11.38
2022-08-17T00:19:01.363Z,9.48
2022-08-17T00:21:25.265Z,10.88
2022-08-17T00:24:16.257Z,12.82
2022-08-17T00:27:06.115Z,10.65
2022-08-17T00:29:56.060Z,12.20
2022-08-17T00:33:14.162Z,9.82
2022-08-17T00:35:59.150Z,13.63
2022-08-17T00:38:50.348Z,11.10
2022-08-17T00:41:42.403Z,11.15
2022-08-17T00:44:33.090Z,9.98
2022-08-17T00:47:23.111Z,10.43
2022-08-17T00:50:15.714Z,10.38
2022-08-17T00:53:05.890Z,9.20
2022-08-17T00:55:59.651Z,9.73
2022-08-17T00:58:52.268Z,11.23
2022-08-17T01:01:42.857Z,11.80
2022-08-17T01:04:33.608Z,13.90
2022-08-17T01:07:25.114Z,13.27
2022-08-17T01:10:58.995Z,13.60
2022-08-17T01:13:35.519Z,11.60
2022-08-17T01:16:31.593Z,9.85
2022-08-17T01:19:26.762Z,10.75
2022-08-17T01:22:22.061Z,9.75
2022-08-17T01:25:13.680Z,9.82
2022-08-17T01:28:04.374Z,12.90
2022-08-17T01:30:57.437Z,12.63
2022-08-17T01:33:49.340Z,13.43
2022-08-17T01:36:42.309Z,15.75
2022-08-17T01:39:42.197Z,11.27
2022-08-17T01:42:46.441Z,13.70
2022-08-17T01:45:43.222Z,11.45
2022-08-17T01:48:35.623Z,15.65
2022-08-17T01:51:32.431Z,10.23
2022-08-17T01:54:24.844Z,13.02
2022-08-17T01:57:15.270Z,15.23
2022-08-17T02:00:10.619Z,10.93
2022-08-17T02:03:01.080Z,12.60
2022-08-17T02:05:53.188Z,17.13
2022-08-17T02:09:03.152Z,14.02
2022-08-17T02:11:56.393Z,13.77
2022-08-17T02:14:46.648Z,10.82
2022-08-17T02:17:36.742Z,14.63
2022-08-17T02:20:41.591Z,13.27
2022-08-17T02:23:36.255Z,18.58
2022-08-17T02:26:26.760Z,15.95
2022-08-17T02:29:16.684Z,11.68
2022-08-17T02:32:06.797Z,10.27
2022-08-17T02:34:57.944Z,15.73
2022-08-17T02:37:49.391Z,12.05
2022-08-17T02:40:45.541Z,12.80
2022-08-17T02:43:35.932Z,12.52
2022-08-17T02:46:26.286Z,11.68
2022-08-17T02:49:16.343Z,13.50
2022-08-17T02:52:07.755Z,15.90
2022-08-17T02:54:57.988Z,12.43
2022-08-17T02:57:50.265Z,14.85
2022-08-17T03:00:43.459Z,12.02
2022-08-17T03:03:35.103Z,16.65
2022-08-17T03:06:25.568Z,13.82
2022-08-17T03:09:16.828Z,12.35
2022-08-17T03:12:10.018Z,11.75
2022-08-17T03:15:05.636Z,15.95
2022-08-17T03:17:56.697Z,16.70
2022-08-17T03:20:47.307Z,11.73
2022-08-17T03:23:42.179Z,12.98
2022-08-17T03:26:32.298Z,13.73
2022-08-17T03:29:22.732Z,13.82
2022-08-17T03:32:14.609Z,17.58
2022-08-17T03:35:05.574Z,11.68
2022-08-17T03:38:00.375Z,16.67
2022-08-17T03:40:57.892Z,18.60
2022-08-17T03:43:49.122Z,12.82
2022-08-17T03:46:58.173Z,16.88
2022-08-17T03:50:07.167Z,15.70
2022-08-17T03:53:24.597Z,15.25
2022-08-17T03:56:33.283Z,15.88
2022-08-17T03:59:23.571Z,16.02
2022-08-17T04:02:21.451Z,16.20
2022-08-17T04:05:11.758Z,18.60
2022-08-17T04:08:01.870Z,15.63
2022-08-17T04:10:56.580Z,16.20
2022-08-17T04:13:46.810Z,15.95
2022-08-17T04:16:38.644Z,14.75
2022-08-17T04:19:29.113Z,16.33
2022-08-17T04:22:32.765Z,16.38
2022-08-17T04:25:24.280Z,15.23
2022-08-17T04:28:16.544Z,13.23
2022-08-17T04:31:06.716Z,13.23
2022-08-17T04:33:57.091Z,16.60
2022-08-17T04:36:50.235Z,12.77
2022-08-17T04:40:03.840Z,13.45
2022-08-17T04:43:10.569Z,14.63
2022-08-17T04:46:04.063Z,15.63
2022-08-17T04:48:57.194Z,13.33
2022-08-17T04:51:54.471Z,13.93
2022-08-17T04:54:46.401Z,16.75
2022-08-17T04:57:39.465Z,18.02
2022-08-17T05:00:31.918Z,16.80
2022-08-17T05:03:22.275Z,13.60
2022-08-17T05:06:12.562Z,16.08
2022-08-17T05:09:03.621Z,16.60
2022-08-17T05:11:53.912Z,14.80
2022-08-17T05:14:45.558Z,15.65
2022-08-17T05:17:35.735Z,17.67
2022-08-17T05:20:25.968Z,22.73
2022-08-17T05:23:18.614Z,21.33
2022-08-17T05:26:09.513Z,17.42
2022-08-17T05:29:09.798Z,25.83
2022-08-17T05:32:39.509Z,24.75
2022-08-17T05:35:22.039Z,23.98
2022-08-17T05:38:13.199Z,27.67
2022-08-17T05:41:06.821Z,20.35
2022-08-17T05:43:57.092Z,18.57
2022-08-17T05:46:53.191Z,16.25
2022-08-17T05:49:43.711Z,14.85
2022-08-17T05:52:49.660Z,19.33
2022-08-17T05:56:10.919Z,19.35
2022-08-17T05:59:48.563Z,26.95
2022-08-17T06:02:54.234Z,21.90
2022-08-17T06:05:58.358Z,21.27
2022-08-17T06:09:01.324Z,21.17
2022-08-17T06:12:00.096Z,18.65
2022-08-17T06:15:16.777Z,21.10
2022-08-17T06:18:10.387Z,17.65
2022-08-17T06:21:06.038Z,20.77
2022-08-17T06:24:20.620Z,24.20
2022-08-17T06:27:22.930Z,25.88
2022-08-17T06:30:20.256Z,28.98
2022-08-17T06:33:19.124Z,25.92
2022-08-17T06:36:39.442Z,20.20
2022-08-17T06:39:58.261Z,23.27
2022-08-17T06:43:14.107Z,19.83
2022-08-17T06:46:21.826Z,15.90
2022-08-17T06:49:21.845Z,20.20
2022-08-17T06:52:42.197Z,17.42
2022-08-17T06:55:38.133Z,14.02
2022-08-17T06:58:31.549Z,17.23
2022-08-17T07:01:26.884Z,13.75
2022-08-17T07:04:21.358Z,14.05
2022-08-17T07:07:31.394Z,19.48
2022-08-17T07:10:25.080Z,13.75
2022-08-17T07:13:41.209Z,15.20
2022-08-17T07:16:50.769Z,14.63
2022-08-17T07:19:45.338Z,16.80
2022-08-17T07:23:13.272Z,9.88
2022-08-17T07:26:05.470Z,11.45
2022-08-17T07:28:58.310Z,13.43
2022-08-17T07:31:48.660Z,11.83
2022-08-17T07:35:00.188Z,15.07
2022-08-17T07:38:07.765Z,10.05
2022-08-17T07:41:20.375Z,12.10
2022-08-17T07:44:13.481Z,14.25
2022-08-17T07:47:23.754Z,11.30
2022-08-17T07:50:29.841Z,11.70
2022-08-17T07:53:25.729Z,13.27
2022-08-17T07:56:37.931Z,10.20
2022-08-17T07:59:34.085Z,10.65
2022-08-17T08:02:34.187Z,12.90
2022-08-17T08:05:30.733Z,16.83
2022-08-17T08:08:43.582Z,7.50
2022-08-17T08:11:38.263Z,7.20
2022-08-17T08:14:34.015Z,6.85
2022-08-17T08:20:47.666Z,6.65
2022-08-17T08:23:57.432Z,6.15
2022-08-17T08:26:55.347Z,6.68
2022-08-17T08:30:08.712Z,9.07
2022-08-17T08:33:34.117Z,8.57
2022-08-17T08:37:14.376Z,5.78
2022-08-17T08:40:08.828Z,7.45
2022-08-17T08:43:24.905Z,6.13
2022-08-17T08:46:44.842Z,7.72
2022-08-17T08:50:08.719Z,4.97
2022-08-17T08:53:16.449Z,4.68
2022-08-17T08:57:04.962Z,7.07
2022-08-17T09:00:20.638Z,6.82
2022-08-17T09:03:52.200Z,3.55
2022-08-17T09:06:57.249Z,3.65
2022-08-17T09:10:17.085Z,4.00
2022-08-17T09:13:35.220Z,4.00
2022-08-17T09:16:33.088Z,6.70
2022-08-17T09:19:31.940Z,7.10
2022-08-17T09:22:39.183Z,5.22
2022-08-17T09:25:33.372Z,4.30
2022-08-17T09:28:34.730Z,5.68
2022-08-17T09:31:48.735Z,11.90
2022-08-17T09:34:56.624Z,5.93
2022-08-17T09:38:05.836Z,5.30
2022-08-17T09:41:21.687Z,6.75
2022-08-17T09:44:35.848Z,10.13
2022-08-17T09:47:46.445Z,15.65
2022-08-17T09:50:55.350Z,6.45
2022-08-17T09:54:05.277Z,10.00
2022-08-17T09:57:37.910Z,9.45
2022-08-17T10:00:35.746Z,6.30
2022-08-17T10:03:59.731Z,7.07
2022-08-17T10:07:02.466Z,4.45
2022-08-17T10:10:07.031Z,9.13
2022-08-17T10:13:10.696Z,6.13
2022-08-17T10:16:23.140Z,7.35
2022-08-17T10:19:24.602Z,8.90
2022-08-17T10:22:49.869Z,7.43
2022-08-17T10:26:04.743Z,8.27
2022-08-17T10:29:12.403Z,5.22
2022-08-17T10:32:09.191Z,6.05
2022-08-17T10:35:25.868Z,5.35
2022-08-17T10:38:38.603Z,5.90
2022-08-17T10:41:40.704Z,5.95
2022-08-17T10:45:06.690Z,8.48
2022-08-17T10:48:06.259Z,5.57
2022-08-17T10:50:59.235Z,8.63
2022-08-17T10:53:50.261Z,7.75
2022-08-17T10:56:50.929Z,5.45
2022-08-17T10:59:50.747Z,8.25
2022-08-17T11:02:49.344Z,10.02
2022-08-17T11:05:52.313Z,7.40
2022-08-17T11:09:08.807Z,5.32
2022-08-17T11:12:06.544Z,6.30
2022-08-17T11:15:18.116Z,5.63
2022-08-17T11:18:29.161Z,6.25
2022-08-17T11:21:45.441Z,9.18
2022-08-17T11:24:47.962Z,8.52
2022-08-17T11:27:38.337Z,10.20
2022-08-17T11:30:57.780Z,9.45
2022-08-17T11:33:59.268Z,7.18
2022-08-17T11:37:17.312Z,7.22
2022-08-17T11:40:26.508Z,10.35
2022-08-17T11:43:42.967Z,7.57
2022-08-17T11:47:09.238Z,6.45
2022-08-17T11:50:36.950Z,6.25
2022-08-17T11:53:50.517Z,5.72
2022-08-17T11:56:42.709Z,7.97
2022-08-17T11:59:32.806Z,11.48
2022-08-17T12:02:29.867Z,6.20
2022-08-17T12:05:29.187Z,6.70
2022-08-17T12:08:21.851Z,8.55
2022-08-17T12:12:11.010Z,8.18
2022-08-17T12:15:07.994Z,9.60
2022-08-17T12:17:55.510Z,7.85
2022-08-17T12:20:54.587Z,8.45
2022-08-17T12:23:57.092Z,6.85
2022-08-17T12:26:57.148Z,8.98
2022-08-17T12:29:47.550Z,10.63
2022-08-17T12:32:40.512Z,10.70
2022-08-17T12:35:35.242Z,11.88
2022-08-17T12:38:32.023Z,11.13
2022-08-17T12:41:57.379Z,9.98
2022-08-17T12:44:50.696Z,10.25
2022-08-17T12:47:41.208Z,15.48
2022-08-17T12:50:32.137Z,9.57
2022-08-17T12:53:27.184Z,9.85
2022-08-17T12:56:17.123Z,9.18
2022-08-17T12:59:07.272Z,10.88
2022-08-17T13:02:00.726Z,11.82
2022-08-17T13:04:50.823Z,11.55
2022-08-17T13:07:46.647Z,8.13
2022-08-17T13:10:37.997Z,6.03
2022-08-17T13:13:34.902Z,7.05
2022-08-17T13:16:30.690Z,9.55
2022-08-17T13:19:29.772Z,11.02
2022-08-17T13:22:32.410Z,8.45
2022-08-17T13:25:23.841Z,6.45
2022-08-17T13:28:35.710Z,8.13
2022-08-17T13:31:27.932Z,9.88
2022-08-17T13:34:23.938Z,6.93
2022-08-17T13:37:26.187Z,5.47
2022-08-17T13:40:20.117Z,6.18
2022-08-17T13:43:11.957Z,8.07
2022-08-17T13:46:20.828Z,9.07
2022-08-17T13:49:12.055Z,5.65
2022-08-17T13:52:02.402Z,7.72
2022-08-17T13:54:52.615Z,6.80
2022-08-17T13:57:49.655Z,6.53
2022-08-17T14:00:56.230Z,5.05
2022-08-17T14:03:46.133Z,7.13
2022-08-17T14:06:54.093Z,5.63
2022-08-17T14:09:47.146Z,5.47
2022-08-17T14:12:39.563Z,5.15
2022-08-17T14:15:54.928Z,10.27
2022-08-17T14:18:56.850Z,8.48
2022-08-17T14:21:48.205Z,5.07
2022-08-17T14:24:44.991Z,6.70
2022-08-17T14:27:41.864Z,5.30
2022-08-17T14:30:43.566Z,4.80
2022-08-17T14:33:34.965Z,5.97
2022-08-17T14:36:25.736Z,9.57
2022-08-17T14:39:16.886Z,10.20
2022-08-17T14:42:07.073Z,7.15
2022-08-17T14:44:58.757Z,5.93
2022-08-17T14:47:48.931Z,4.65
2022-08-17T14:50:41.757Z,6.90
2022-08-17T14:53:31.948Z,5.30
2022-08-17T14:56:22.210Z,4.65
2022-08-17T14:59:12.704Z,5.07
2022-08-17T15:02:03.619Z,5.40
2022-08-17T15:04:58.486Z,4.70
2022-08-17T15:07:48.966Z,4.63
2022-08-17T15:10:39.327Z,5.85
2022-08-17T15:13:29.534Z,8.02
2022-08-17T15:16:20.423Z,4.93
2022-08-17T15:19:10.813Z,4.30
2022-08-17T15:22:01.402Z,7.05
2022-08-17T15:24:51.668Z,5.63
2022-08-17T15:27:42.560Z,8.40
2022-08-17T15:30:32.958Z,6.93
2022-08-17T15:33:29.318Z,4.00
2022-08-17T15:36:19.696Z,9.32
2022-08-17T15:39:09.573Z,4.88
2022-08-17T15:42:02.759Z,5.55
2022-08-17T15:44:55.147Z,5.55
2022-08-17T15:47:46.522Z,8.52
2022-08-17T15:50:37.417Z,6.25
2022-08-17T15:53:27.552Z,7.72
2022-08-17T15:56:18.741Z,7.10
2022-08-17T15:59:09.666Z,7.57
2022-08-17T16:03:16.010Z,5.18
2022-08-17T16:05:17.583Z,4.60
2022-08-17T16:08:11.055Z,4.65
2022-08-17T16:11:03.440Z,4.68
2022-08-17T16:13:55.071Z,4.82
2022-08-17T16:16:46.259Z,7.95
2022-08-17T16:19:37.965Z,5.88
2022-08-17T16:22:36.031Z,9.15
2022-08-17T16:25:52.288Z,5.32
2022-08-17T16:28:41.049Z,5.53
2022-08-17T16:31:32.719Z,8.35
2022-08-17T16:34:23.776Z,6.13
2022-08-17T16:37:14.020Z,6.68
2022-08-17T16:40:07.091Z,6.03
2022-08-17T16:42:57.847Z,5.97
2022-08-17T16:45:51.970Z,7.50
2022-08-17T16:48:44.414Z,8.52
2022-08-17T16:51:35.931Z,10.02
2022-08-17T16:54:26.334Z,6.20
2022-08-17T16:57:17.519Z,11.13
2022-08-17T17:00:12.531Z,6.28
2022-08-17T17:03:19.101Z,6.95
2022-08-17T17:06:45.826Z,6.57
2022-08-17T17:09:37.962Z,6.95
2022-08-17T17:13:00.933Z,6.07
2022-08-17T17:15:54.937Z,5.28
2022-08-17T17:19:34.475Z,7.80
2022-08-17T17:22:47.874Z,9.13
2022-08-17T17:25:53.702Z,5.05
2022-08-17T17:29:04.532Z,7.60
2022-08-17T17:32:20.740Z,10.32
2022-08-17T17:35:18.832Z,8.57
2022-08-17T17:38:15.194Z,5.28
2022-08-17T17:41:12.235Z,7.30
2022-08-17T17:44:12.219Z,8.25
2022-08-17T17:47:05.539Z,7.90
2022-08-17T17:49:55.932Z,5.75
2022-08-17T17:53:10.609Z,8.32
2022-08-17T17:59:24.075Z,8.40
2022-08-17T18:02:51.420Z,10.05
2022-08-17T18:05:54.650Z,7.10
2022-08-17T18:08:59.725Z,7.38
2022-08-17T18:12:14.897Z,11.25
2022-08-17T18:15:29.520Z,6.50
2022-08-17T18:18:31.103Z,10.27
2022-08-17T18:21:27.539Z,11.27
2022-08-17T18:24:30.348Z,12.60
2022-08-17T18:27:40.100Z,15.20
2022-08-17T18:30:30.772Z,7.97
2022-08-17T18:33:26.501Z,8.93
2022-08-17T18:36:32.537Z,11.27
2022-08-17T18:39:27.713Z,9.23
2022-08-17T18:42:26.104Z,11.15
2022-08-17T18:45:33.808Z,7.55
2022-08-17T18:48:48.985Z,10.10
2022-08-17T18:51:43.274Z,10.40
2022-08-17T18:54:36.034Z,8.18
2022-08-17T18:57:41.354Z,15.45
2022-08-17T19:00:38.366Z,8.38
2022-08-17T19:03:29.452Z,8.95
2022-08-17T19:06:31.340Z,11.95
2022-08-17T19:09:32.710Z,9.93
2022-08-17T19:12:41.732Z,12.52
2022-08-17T19:15:36.870Z,8.95
2022-08-17T19:18:36.181Z,8.45
2022-08-17T19:21:38.239Z,11.20
2022-08-17T19:24:31.943Z,11.07
2022-08-17T19:27:41.825Z,9.40
2022-08-17T19:30:36.951Z,12.52
2022-08-17T19:33:31.540Z,13.73
2022-08-17T19:36:22.532Z,11.75
2022-08-17T19:39:37.808Z,12.55
2022-08-17T19:43:02.953Z,10.00
2022-08-17T19:46:18.286Z,12.87
2022-08-17T19:49:32.968Z,12.82
2022-08-17T19:52:38.829Z,9.40
2022-08-17T19:55:47.694Z,12.73
2022-08-17T19:58:44.818Z,9.40
2022-08-17T20:01:45.811Z,13.35
2022-08-17T20:04:42.354Z,15.30
2022-08-17T20:08:17.595Z,11.70
2022-08-17T20:11:17.204Z,15.43
2022-08-17T20:14:14.972Z,10.15
2022-08-17T20:17:06.155Z,14.85
2022-08-17T20:20:19.316Z,10.90
2022-08-17T20:23:28.453Z,12.40
2022-08-17T20:26:43.175Z,11.55
2022-08-17T20:30:12.243Z,13.30
2022-08-17T20:33:05.601Z,13.25
2022-08-17T20:36:11.183Z,15.70
2022-08-17T20:39:01.515Z,13.20
2022-08-17T20:42:15.268Z,15.63
2022-08-17T20:45:20.503Z,16.80
2022-08-17T20:48:36.958Z,13.77
2022-08-17T20:52:00.428Z,14.73
2022-08-17T20:57:48.962Z,13.95
2022-08-17T21:00:42.076Z,11.45
2022-08-17T21:03:47.636Z,14.48
2022-08-17T21:07:19.997Z,10.23
2022-08-17T21:10:16.789Z,16.80
2022-08-17T21:13:13.936Z,13.40
2022-08-17T21:16:22.269Z,13.23
2022-08-17T21:20:08.188Z,14.63
2022-08-17T21:23:08.706Z,12.55
2022-08-17T21:26:50.661Z,18.13
2022-08-17T21:30:06.612Z,14.50
2022-08-17T21:33:24.925Z,12.27
2022-08-17T21:36:23.809Z,11.35
2022-08-17T21:39:19.148Z,15.02
2022-08-17T21:42:13.645Z,21.15
2022-08-17T21:45:28.058Z,13.57
2022-08-17T21:48:27.423Z,11.43
2022-08-17T21:51:21.537Z,20.73
2022-08-17T21:54:40.383Z,18.13
2022-08-17T21:57:33.242Z,14.55
2022-08-17T22:00:29.773Z,13.93
2022-08-17T22:03:26.091Z,13.10
2022-08-17T22:06:38.420Z,17.23
2022-08-17T22:09:35.701Z,13.38
2022-08-17T22:12:25.676Z,11.90
2022-08-17T22:15:17.645Z,13.65
2022-08-17T22:18:21.125Z,14.88
2022-08-17T22:21:11.556Z,15.70
2022-08-17T22:24:16.030Z,13.38
2022-08-17T22:27:11.143Z,12.43
2022-08-17T22:30:28.359Z,13.18
2022-08-17T22:33:36.898Z,15.20
2022-08-17T22:36:30.268Z,15.95
2022-08-17T22:39:22.550Z,15.73
2022-08-17T22:42:17.136Z,15.77
2022-08-17T22:45:08.254Z,17.35
2022-08-17T22:48:01.469Z,10.85
2022-08-17T22:51:03.131Z,8.88
2022-08-17T22:54:31.491Z,9.60
2022-08-17T22:57:42.710Z,8.57
2022-08-17T23:00:37.865Z,8.52
2022-08-17T23:03:30.540Z,8.45
2022-08-17T23:06:20.669Z,9.05
2022-08-17T23:09:10.869Z,10.45
2022-08-17T23:12:05.669Z,10.40
2022-08-17T23:15:00.398Z,7.63
2022-08-17T23:17:50.725Z,8.35
2022-08-17T23:20:41.674Z,8.07
2022-08-17T23:23:31.728Z,6.35
2022-08-17T23:26:22.920Z,5.85
2022-08-17T23:29:13.208Z,6.28
2022-08-17T23:32:05.393Z,6.20
2022-08-17T23:34:56.553Z,5.82
2022-08-17T23:37:46.841Z,4.85
2022-08-17T23:40:39.550Z,9.52
2022-08-17T23:43:31.581Z,7.15
2022-08-17T23:46:24.341Z,6.90
2022-08-17T23:49:14.589Z,7.70
2022-08-17T23:52:09.894Z,9.18
2022-08-17T23:55:00.123Z,9.57
2022-08-17T23:57:50.704Z,8.40
